Time,TemperatureF,DewpointF,PressureIn,WindDirection,WindDirectionDegrees,WindSpeedMPH,WindSpeedGustMPH,Humidity,HourlyPrecipIn,Conditions,Clouds,dailyrainin,SoftwareType,DateUTC
2013-11-13 00:23:00,25.0,15.0,30.17,NNE,23,0.0,3.0,65,0.00,,,0.00,,2013-11-13 05:23:00,
2013-11-13 00:53:00,24.0,14.0,30.17,North,0,0.0,5.0,66,0.00,,,0.00,,2013-11-13 05:53:00,
2013-11-13 01:22:00,24.0,14.0,30.18,NNW,338,0.0,0.0,65,0.00,,,0.00,,2013-11-13 06:22:00,
2013-11-13 01:42:00,24.0,14.0,30.18,NE,45,0.0,0.0,66,0.00,,,0.00,,2013-11-13 06:42:00,
2013-11-13 01:52:00,24.0,14.0,30.18,NNE,23,0.0,0.0,66,0.00,,,0.00,,2013-11-13 06:52:00,
2013-11-13 02:22:00,24.0,14.0,30.18,WNW,293,0.0,0.0,66,0.00,,,0.00,,2013-11-13 07:22:00,
2013-11-13 02:42:00,23.0,13.0,30.18,North,0,2.0,3.0,66,0.00,,,0.00,,2013-11-13 07:42:00,
2013-11-13 02:52:00,23.0,13.0,30.18,NNE,23,0.0,0.0,66,0.00,,,0.00,,2013-11-13 07:52:00,
2013-11-13 03:22:00,23.0,14.0,30.18,NE,45,0.0,0.0,67,0.00,,,0.00,,2013-11-13 08:22:00,
2013-11-13 03:52:00,23.0,14.0,30.18,NNE,23,0.0,2.0,67,0.00,,,0.00,,2013-11-13 08:52:00,
2013-11-13 04:21:00,23.0,14.0,30.19,North,0,0.0,1.0,68,0.00,,,0.00,,2013-11-13 09:21:00,
2013-11-13 04:43:00,22.0,13.0,30.19,NNE,23,0.0,2.0,68,0.00,,,0.00,,2013-11-13 09:43:00,
2013-11-13 04:52:00,22.0,13.0,30.20,NNE,23,0.0,2.0,68,0.00,,,0.00,,2013-11-13 09:52:00,
2013-11-13 05:23:00,22.0,13.0,30.20,NNE,23,0.0,0.0,69,0.00,,,0.00,,2013-11-13 10:23:00,
2013-11-13 05:52:00,21.0,13.0,30.20,NE,45,0.0,0.0,70,0.00,,,0.00,,2013-11-13 10:52:00,
2013-11-13 06:22:00,21.0,13.0,30.21,NNE,23,0.0,0.0,70,0.00,,,0.00,,2013-11-13 11:22:00,
2013-11-13 06:52:00,21.0,13.0,30.21,NE,45,0.0,0.0,71,0.00,,,0.00,,2013-11-13 11:52:00,
2013-11-13 07:22:00,21.0,13.0,30.23,NNE,23,0.0,0.0,71,0.00,,,0.00,,2013-11-13 12:22:00,
2013-11-13 07:42:00,22.0,14.0,30.24,NNE,23,0.0,0.0,71,0.00,,,0.00,,2013-11-13 12:42:00,
2013-11-13 07:52:00,22.0,14.0,30.24,NNE,23,0.0,0.0,72,0.00,,,0.00,,2013-11-13 12:52:00,
2013-11-13 08:22:00,24.0,16.0,30.26,NE,45,5.0,5.0,70,0.00,,,0.00,,2013-11-13 13:22:00,
2013-11-13 08:42:00,25.0,16.0,30.27,NNE,23,2.0,2.0,68,0.00,,,0.00,,2013-11-13 13:42:00,
2013-11-13 08:52:00,26.0,17.0,30.26,NNE,23,4.0,6.0,68,0.00,,,0.00,,2013-11-13 13:52:00,
2013-11-13 09:22:00,28.0,18.0,30.26,NE,42,4.0,7.0,65,0.00,,,0.00,,2013-11-13 14:22:00,
2013-11-13 09:42:00,29.0,18.0,30.25,North,0,0.0,4.0,63,0.00,,,0.00,,2013-11-13 14:42:00,
2013-11-13 09:52:00,29.0,18.0,30.25,North,6,4.0,6.0,62,0.00,,,0.00,,2013-11-13 14:52:00,
2013-11-13 10:22:00,30.0,17.0,30.26,North,0,1.0,5.0,59,0.00,,,0.00,,2013-11-13 15:22:00,
2013-11-13 10:53:00,32.0,19.0,30.24,North,0,0.0,2.0,57,0.00,,,0.00,,2013-11-13 15:53:00,
2013-11-13 11:53:00,34.0,17.0,30.22,NE,43,4.0,8.0,50,0.00,,,0.00,,2013-11-13 16:53:00,
2013-11-13 12:23:00,33.0,17.0,30.21,WSW,248,0.0,0.0,52,0.00,,,0.00,,2013-11-13 17:23:00,
2013-11-13 12:52:00,34.0,18.0,30.21,WSW,248,6.0,6.0,51,0.00,,,0.00,,2013-11-13 17:52:00,
2013-11-13 13:23:00,34.0,17.0,30.20,WSW,248,0.0,6.0,50,0.00,,,0.00,,2013-11-13 18:23:00,
2013-11-13 13:52:00,35.0,17.0,30.19,NNE,23,0.0,8.0,48,0.00,,,0.00,,2013-11-13 18:52:00,
2013-11-13 14:21:00,37.0,18.0,30.19,NW,315,0.0,10.0,45,0.00,,,0.00,,2013-11-13 19:21:00,
2013-11-13 14:52:00,37.0,17.0,30.20,NNW,331,4.0,5.0,44,0.00,,,0.00,,2013-11-13 19:52:00,
2013-11-13 15:22:00,37.0,16.0,30.20,WNW,293,2.0,5.0,42,0.00,,,0.00,,2013-11-13 20:22:00,
2013-11-13 15:52:00,35.0,15.0,30.20,West,270,0.0,4.0,43,0.00,,,0.00,,2013-11-13 20:52:00,
2013-11-13 16:22:00,33.0,13.0,30.20,North,0,0.0,0.0,44,0.00,,,0.00,,2013-11-13 21:22:00,
2013-11-13 16:43:00,33.0,13.0,30.20,NNE,23,0.0,4.0,43,0.00,,,0.00,,2013-11-13 21:43:00,
2013-11-13 16:53:00,32.0,13.0,30.20,North,0,0.0,0.0,45,0.00,,,0.00,,2013-11-13 21:53:00,
2013-11-13 17:23:00,30.0,12.0,30.22,North,0,0.0,0.0,46,0.00,,,0.00,,2013-11-13 22:23:00,
2013-11-13 17:53:00,29.0,11.0,30.23,NNW,338,0.0,0.0,47,0.00,,,0.00,,2013-11-13 22:53:00,
2013-11-13 18:22:00,29.0,11.0,30.24,WNW,293,0.0,0.0,47,0.00,,,0.00,,2013-11-13 23:22:00,
2013-11-13 18:43:00,28.0,10.0,30.23,West,270,0.0,0.0,47,0.00,,,0.00,,2013-11-13 23:43:00,
2013-11-13 18:53:00,28.0,11.0,30.24,WNW,293,0.0,0.0,48,0.00,,,0.00,,2013-11-13 23:53:00,
2013-11-13 19:22:00,28.0,11.0,30.24,WNW,293,0.0,0.0,49,0.00,,,0.00,,2013-11-14 00:22:00,
2013-11-13 19:52:00,28.0,12.0,30.24,WNW,293,0.0,0.0,50,0.00,,,0.00,,2013-11-14 00:52:00,
2013-11-13 20:22:00,27.0,11.0,30.24,WNW,293,0.0,0.0,51,0.00,,,0.00,,2013-11-14 01:22:00,
2013-11-13 20:42:00,27.0,12.0,30.24,WNW,293,0.0,0.0,52,0.00,,,0.00,,2013-11-14 01:42:00,
2013-11-13 20:52:00,27.0,12.0,30.23,West,270,0.0,0.0,52,0.00,,,0.00,,2013-11-14 01:52:00,
2013-11-13 21:22:00,26.0,11.0,30.23,WNW,293,0.0,0.0,53,0.00,,,0.00,,2013-11-14 02:22:00,
2013-11-13 22:21:00,26.0,13.0,30.21,West,270,0.0,0.0,57,0.00,,,0.00,,2013-11-14 03:21:00,
2013-11-13 22:54:00,27.0,14.0,30.20,WNW,293,0.0,0.0,57,0.00,,,0.00,,2013-11-14 03:54:00,
2013-11-13 23:24:00,27.0,14.0,30.20,WNW,293,0.0,0.0,57,0.00,,,0.00,,2013-11-14 04:24:00,
2013-11-13 23:54:00,27.0,14.0,30.18,West,270,0.0,0.0,57,0.00,,,0.00,,2013-11-14 04:54:00,